Map

Track Data

SID SEASON NUMBER BASIN SUBBASIN NAME ISO_TIME NATURE LAT LON WMO_WIND WMO_PRES WMO_AGENCY TRACK_TYPE DIST2LAND LANDFALL IFLAG USA_AGENCY USA_ATCF_ID USA_LAT USA_LON USA_RECORD USA_STATUS USA_WIND USA_PRES USA_SSHS USA_R34_NE USA_R34_SE USA_R34_SW USA_R34_NW USA_R50_NE USA_R50_SE USA_R50_SW USA_R50_NW USA_R64_NE USA_R64_SE USA_R64_SW USA_R64_NW USA_POCI USA_ROCI USA_RMW USA_EYE TOKYO_LAT TOKYO_LON TOKYO_GRADE TOKYO_WIND TOKYO_PRES TOKYO_R50_DIR TOKYO_R50_LONG TOKYO_R50_SHORT TOKYO_R30_DIR TOKYO_R30_LONG TOKYO_R30_SHORT TOKYO_LAND CMA_LAT CMA_LON CMA_CAT CMA_WIND CMA_PRES HKO_LAT HKO_LON HKO_CAT HKO_WIND HKO_PRES NEWDELHI_LAT NEWDELHI_LON NEWDELHI_GRADE NEWDELHI_WIND NEWDELHI_PRES NEWDELHI_CI NEWDELHI_DP NEWDELHI_POCI REUNION_LAT REUNION_LON REUNION_TYPE REUNION_WIND REUNION_PRES REUNION_TNUM REUNION_CI REUNION_RMW REUNION_R34_NE REUNION_R34_SE REUNION_R34_SW REUNION_R34_NW REUNION_R50_NE REUNION_R50_SE REUNION_R50_SW REUNION_R50_NW REUNION_R64_NE REUNION_R64_SE REUNION_R64_SW REUNION_R64_NW BOM_LAT BOM_LON BOM_TYPE BOM_WIND BOM_PRES BOM_TNUM BOM_CI BOM_RMW BOM_R34_NE BOM_R34_SE BOM_R34_SW BOM_R34_NW BOM_R50_NE BOM_R50_SE BOM_R50_SW BOM_R50_NW BOM_R64_NE BOM_R64_SE BOM_R64_SW BOM_R64_NW BOM_ROCI BOM_POCI BOM_EYE BOM_POS_METHOD BOM_PRES_METHOD NADI_LAT NADI_LON NADI_CAT NADI_WIND NADI_PRES WELLINGTON_LAT WELLINGTON_LON WELLINGTON_WIND WELLINGTON_PRES DS824_LAT DS824_LON DS824_STAGE DS824_WIND DS824_PRES TD9636_LAT TD9636_LON TD9636_STAGE TD9636_WIND TD9636_PRES TD9635_LAT TD9635_LON TD9635_WIND TD9635_PRES TD9635_ROCI NEUMANN_LAT NEUMANN_LON NEUMANN_CLASS NEUMANN_WIND NEUMANN_PRES MLC_LAT MLC_LON MLC_CLASS MLC_WIND MLC_PRES USA_GUST BOM_GUST BOM_GUST_PER REUNION_GUST REUNION_GUST_PER USA_SEAHGT USA_SEARAD_NE USA_SEARAD_SE USA_SEARAD_SW USA_SEARAD_NW STORM_SPEED STORM_DIR
2002204N12263 2002 42 EP MM ELIDA 2002-07-23 06:00:00 TS 11.6000 -96.7000 30 1006 hurdat_epa main 447 438 O_____________ hurdat_epa EP062002 11.6000 -96.7000 TD 30 1006 -1 1009 150 50 17 279
2002204N12263 2002 42 EP MM ELIDA 2002-07-23 09:00:00 TS 11.7404 -97.5751 main 449 441 P_____________ EP062002 11.7404 -97.5751 TD 32 1005 -1 1009 150 50 18 280
2002204N12263 2002 42 EP MM ELIDA 2002-07-23 12:00:00 TS 11.9000 -98.5000 35 1004 hurdat_epa main 462 460 O_____________ hurdat_epa EP062002 11.9000 -98.5000 TS 35 1004 0 1010 150 50 19 280
2002204N12263 2002 42 EP MM ELIDA 2002-07-23 15:00:00 TS 12.0800 -99.4997 main 473 473 P_____________ EP062002 12.0800 -99.4997 TS 40 1002 0 1010 150 50 20 279
2002204N12263 2002 42 EP MM ELIDA 2002-07-23 18:00:00 TS 12.2000 -100.500 45 1000 hurdat_epa main 502 502 O_____________ hurdat_epa EP062002 12.2000 -100.500 TS 45 1000 0 75 75 75 75 1010 150 50 19 272
2002204N12263 2002 42 EP MM ELIDA 2002-07-23 21:00:00 TS 12.1573 -101.445 main 536 536 P_____________ EP062002 12.1573 -101.445 TS 50 997 0 112 75 75 112 1010 150 40 18 267
2002204N12263 2002 42 EP MM ELIDA 2002-07-24 00:00:00 TS 12.1000 -102.300 55 994 hurdat_epa main 586 586 O_____________ hurdat_epa EP062002 12.1000 -102.300 TS 55 994 0 150 75 75 150 1010 150 30 16 270
2002204N12263 2002 42 EP MM ELIDA 2002-07-24 03:00:00 TS 12.1621 -103.030 main 606 606 P_____________ EP062002 12.1621 -103.030 TS 62 989 0 175 100 87 150 1010 175 27 14 278
2002204N12263 2002 42 EP MM ELIDA 2002-07-24 06:00:00 TS 12.3000 -103.700 70 984 hurdat_epa main 625 625 O_____________ hurdat_epa EP062002 12.3000 -103.700 HU 70 984 1 200 125 100 150 1010 200 25 14 283
2002204N12263 2002 42 EP MM ELIDA 2002-07-24 09:00:00 TS 12.4773 -104.393 main 643 643 P_____________ EP062002 12.4773 -104.393 HU 90 968 2 200 125 100 150 1010 200 25 14 286
2002204N12263 2002 42 EP MM ELIDA 2002-07-24 12:00:00 TS 12.7000 -105.100 110 952 hurdat_epa main 648 644 O_____________ hurdat_epa EP062002 12.7000 -105.100 HU 110 952 3 200 125 100 150 1010 200 25 15 288
2002204N12263 2002 42 EP MM ELIDA 2002-07-24 15:00:00 TS 12.9349 -105.850 main 656 646 P_____________ EP062002 12.9349 -105.850 HU 115 947 4 200 125 100 150 1010 200 20 15 289
2002204N12263 2002 42 EP MM ELIDA 2002-07-24 18:00:00 TS 13.2000 -106.600 120 942 hurdat_epa main 660 660 O_____________ hurdat_epa EP062002 13.2000 -106.600 HU 120 942 4 200 125 100 150 1010 200 15 15 292
2002204N12263 2002 42 EP MM ELIDA 2002-07-24 21:00:00 TS 13.4997 -107.300 main 673 671 P_____________ EP062002 13.4997 -107.300 HU 125 936 4 200 137 125 175 1010 200 15 15 294
2002204N12263 2002 42 EP MM ELIDA 2002-07-25 00:00:00 TS 13.8000 -108.000 130 931 hurdat_epa main 693 693 O_____________ hurdat_epa EP062002 13.8000 -108.000 HU 130 931 4 200 150 150 200 1010 200 15 15 292
2002204N12263 2002 42 EP MM ELIDA 2002-07-25 03:00:00 TS 14.0648 -108.743 main 705 705 P_____________ EP062002 14.0648 -108.743 HU 135 926 4 200 112 112 162 1010 200 12 15 289
2002204N12263 2002 42 EP MM ELIDA 2002-07-25 06:00:00 TS 14.3000 -109.500 140 921 hurdat_epa main 742 742 O_____________ hurdat_epa EP062002 14.3000 -109.500 HU 140 921 5 200 75 75 125 1010 200 10 15 287
2002204N12263 2002 42 EP MM ELIDA 2002-07-25 09:00:00 TS 14.5148 -110.250 main 786 786 P_____________ EP062002 14.5148 -110.250 HU 135 926 4 200 75 75 125 1010 200 10 15 285
2002204N12263 2002 42 EP MM ELIDA 2002-07-25 12:00:00 TS 14.7000 -111.000 130 931 hurdat_epa main 824 824 O_____________ hurdat_epa EP062002 14.7000 -111.000 HU 130 931 4 200 75 75 125 1010 200 10 15 284
2002204N12263 2002 42 EP MM ELIDA 2002-07-25 15:00:00 TS 14.8724 -111.765 main 874 874 P_____________ EP062002 14.8724 -111.765 HU 122 939 4 187 137 75 125 1010 200 10 15 282
2002204N12263 2002 42 EP MM ELIDA 2002-07-25 18:00:00 TS 15.0000 -112.500 115 948 hurdat_epa main 921 921 O_____________ hurdat_epa EP062002 15.0000 -112.500 HU 115 948 4 175 200 75 125 1010 200 10 14 278
2002204N12263 2002 42 EP MM ELIDA 2002-07-25 21:00:00 TS 15.0648 -113.180 main 935 935 P_____________ EP062002 15.0648 -113.180 HU 110 952 3 175 200 75 125 1010 200 10 13 275
2002204N12263 2002 42 EP MM ELIDA 2002-07-26 00:00:00 TS 15.1000 -113.800 105 956 hurdat_epa main 959 959 O_____________ hurdat_epa EP062002 15.1000 -113.800 HU 105 956 3 175 200 75 125 1010 200 10 11 273
2002204N12263 2002 42 EP MM ELIDA 2002-07-26 03:00:00 TS 15.1348 -114.365 main 987 982 P_____________ EP062002 15.1348 -114.365 HU 102 959 3 162 175 87 125 1009 212 10 11 275
2002204N12263 2002 42 EP MM ELIDA 2002-07-26 06:00:00 TS 15.2000 -114.900 100 962 hurdat_epa main 1003 1003 O_____________ hurdat_epa EP062002 15.2000 -114.900 HU 100 962 3 150 150 100 125 1008 225 10 11 280
2002204N12263 2002 42 EP MM ELIDA 2002-07-26 09:00:00 TS 15.3199 -115.450 main 1027 1024 P_____________ EP062002 15.3199 -115.450 HU 100 962 3 150 150 100 125 1008 225 10 11 286
2002204N12263 2002 42 EP MM ELIDA 2002-07-26 12:00:00 TS 15.5000 -116.000 100 962 hurdat_epa main 1039 1039 O_____________ hurdat_epa EP062002 15.5000 -116.000 HU 100 962 3 150 150 100 125 1008 225 10 11 292
2002204N12263 2002 42 EP MM ELIDA 2002-07-26 15:00:00 TS 15.7424 -116.550 main 1055 1053 P_____________ EP062002 15.7424 -116.550 HU 97 964 3 150 150 100 125 1008 225 17 12 295
2002204N12263 2002 42 EP MM ELIDA 2002-07-26 18:00:00 TS 16.0000 -117.100 95 966 hurdat_epa main 1071 1071 O_____________ hurdat_epa EP062002 16.0000 -117.100 HU 95 966 2 150 150 100 125 1008 225 25 12 294
2002204N12263 2002 42 EP MM ELIDA 2002-07-26 21:00:00 TS 16.2074 -117.658 main 1100 1100 P_____________ EP062002 16.2074 -117.658 HU 90 969 2 150 150 100 125 1008 225 25 11 291
2002204N12263 2002 42 EP MM ELIDA 2002-07-27 00:00:00 TS 16.4000 -118.200 85 973 hurdat_epa main 1124 1120 O_____________ hurdat_epa EP062002 16.4000 -118.200 HU 85 973 2 150 150 100 125 1008 225 25 11 291
2002204N12263 2002 42 EP MM ELIDA 2002-07-27 03:00:00 TS 16.5923 -118.700 main 1136 1136 P_____________ EP062002 16.5923 -118.700 HU 80 977 1 137 137 112 125 1008 225 25 10 293
2002204N12263 2002 42 EP MM ELIDA 2002-07-27 06:00:00 TS 16.8000 -119.200 75 981 hurdat_epa main 1150 1148 O_____________ hurdat_epa EP062002 16.8000 -119.200 HU 75 981 1 125 125 125 125 1008 225 25 11 294
2002204N12263 2002 42 EP MM ELIDA 2002-07-27 09:00:00 TS 17.0424 -119.743 main 1167 1166 P_____________ EP062002 17.0424 -119.743 HU 70 984 1 125 125 125 125 1008 225 25 12 295
2002204N12263 2002 42 EP MM ELIDA 2002-07-27 12:00:00 TS 17.3000 -120.300 65 987 hurdat_epa main 1186 1185 O_____________ hurdat_epa EP062002 17.3000 -120.300 HU 65 987 1 125 125 125 125 1008 225 25 12 295
2002204N12263 2002 42 EP MM ELIDA 2002-07-27 15:00:00 TS 17.5423 -120.850 main 1215 1208 P_____________ EP062002 17.5423 -120.850 HU 62 988 0 125 125 125 125 1008 225 25 12 295
2002204N12263 2002 42 EP MM ELIDA 2002-07-27 18:00:00 TS 17.8000 -121.400 60 990 hurdat_epa main 1232 1232 O_____________ hurdat_epa EP062002 17.8000 -121.400 TS 60 990 0 125 125 125 125 1008 225 25 12 297
2002204N12263 2002 42 EP MM ELIDA 2002-07-27 21:00:00 TS 18.0925 -121.973 main 1259 1259 P_____________ EP062002 18.0925 -121.973 TS 57 992 0 125 125 125 125 1008 225 25 12 300
2002204N12263 2002 42 EP MM ELIDA 2002-07-28 00:00:00 TS 18.4000 -122.500 55 994 hurdat_epa main 1281 1281 O_____________ hurdat_epa EP062002 18.4000 -122.500 TS 55 994 0 125 125 125 125 1008 225 25 11 303
2002204N12263 2002 42 EP MM ELIDA 2002-07-28 03:00:00 TS 18.6848 -122.923 main 1287 1284 P_____________ EP062002 18.6848 -122.923 TS 55 994 0 122 112 112 122 1008 225 25 10 308
2002204N12263 2002 42 EP MM ELIDA 2002-07-28 06:00:00 TS 19.0000 -123.300 55 994 hurdat_epa main 1288 1282 O_____________ hurdat_epa EP062002 19.0000 -123.300 TS 55 994 0 120 100 100 120 1008 225 25 10 314
2002204N12263 2002 42 EP MM ELIDA 2002-07-28 09:00:00 TS 19.3849 -123.700 main 1282 1278 P_____________ EP062002 19.3849 -123.700 TS 55 994 0 120 100 100 120 1008 225 25 11 317
2002204N12263 2002 42 EP MM ELIDA 2002-07-28 12:00:00 TS 19.8000 -124.100 55 994 hurdat_epa main 1278 1277 O_____________ hurdat_epa EP062002 19.8000 -124.100 TS 55 994 0 120 100 100 120 1008 225 25 11 317
2002204N12263 2002 42 EP MM ELIDA 2002-07-28 15:00:00 TS 20.1924 -124.493 main 1277 1277 P_____________ EP062002 20.1924 -124.493 TS 52 995 0 120 100 100 120 1009 212 25 11 317
2002204N12263 2002 42 EP MM ELIDA 2002-07-28 18:00:00 TS 20.6000 -124.900 50 997 hurdat_epa main 1278 1278 O_____________ hurdat_epa EP062002 20.6000 -124.900 TS 50 997 0 120 100 100 120 1010 200 25 12 316
2002204N12263 2002 42 EP MM ELIDA 2002-07-28 21:00:00 TS 21.0276 -125.358 main 1290 1284 P_____________ EP062002 21.0276 -125.358 TS 47 998 0 120 110 100 120 1010 200 25 12 317
2002204N12263 2002 42 EP MM ELIDA 2002-07-29 00:00:00 TS 21.5000 -125.800 45 1000 hurdat_epa main 1291 1285 O_____________ hurdat_epa EP062002 21.5000 -125.800 TS 45 1000 0 120 120 100 120 1010 200 25 13 323
2002204N12263 2002 42 EP MM ELIDA 2002-07-29 03:00:00 TS 22.0349 -126.173 main 1295 1283 P_____________ EP062002 22.0349 -126.173 TS 42 1001 0 110 110 87 110 1010 200 27 13 329
2002204N12263 2002 42 EP MM ELIDA 2002-07-29 06:00:00 TS 22.6000 -126.500 40 1003 hurdat_epa main 1288 1283 O_____________ hurdat_epa EP062002 22.6000 -126.500 TS 40 1003 0 100 100 75 100 1010 200 30 13 332
2002204N12263 2002 42 EP MM ELIDA 2002-07-29 09:00:00 TS 23.1499 -126.815 main 1290 1285 P_____________ EP062002 23.1499 -126.815 TS 37 1004 0 87 87 62 75 1011 175 32 12 333
2002204N12263 2002 42 EP MM ELIDA 2002-07-29 12:00:00 TS 23.7000 -127.100 35 1006 hurdat_epa main 1290 1286 O_____________ hurdat_epa EP062002 23.7000 -127.100 TS 35 1006 0 75 75 50 50 1012 150 35 12 335
2002204N12263 2002 42 EP MM ELIDA 2002-07-29 15:00:00 TS 24.2275 -127.365 main 1298 1271 P_____________ EP062002 24.2275 -127.365 TS 32 1006 -1 1010 135 35 12 337
2002204N12263 2002 42 EP MM ELIDA 2002-07-29 18:00:00 TS 24.8000 -127.600 30 1007 hurdat_epa main 1271 1224 O_____________ hurdat_epa EP062002 24.8000 -127.600 TD 30 1007 -1 1009 120 35 13 342
2002204N12263 2002 42 EP MM ELIDA 2002-07-29 21:00:00 TS 25.4850 -127.815 main 1215 1162 P_____________ EP062002 25.4850 -127.815 TD 30 1007 -1 1011 120 35 15 346
2002204N12263 2002 42 EP MM ELIDA 2002-07-30 00:00:00 TS 26.2000 -128.000 30 1008 hurdat_epa main 1162 1115 O_____________ hurdat_epa EP062002 26.2000 -128.000 TD 30 1008 -1 1013 120 35 14 347
2002204N12263 2002 42 EP MM ELIDA 2002-07-30 03:00:00 TS 26.8725 -128.165 main 1113 1068 P_____________ EP062002 26.8725 -128.165 TD 30 1008 -1 13 348
2002204N12263 2002 42 EP MM ELIDA 2002-07-30 06:00:00 TS 27.5000 -128.300 30 1009 hurdat_epa main 1068 1034 O_____________ hurdat_epa EP062002 27.5000 -128.300 TD 30 1009 -1 12 350
2002204N12263 2002 42 EP MM ELIDA 2002-07-30 09:00:00 TS 28.0725 -128.415 main 1026 995 P_____________ EP062002 28.0725 -128.415 TD 27 1010 -1 11 351
2002204N12263 2002 42 EP MM ELIDA 2002-07-30 12:00:00 TS 28.6000 -128.500 25 1011 hurdat_epa main 995 965 O_____________ hurdat_epa EP062002 28.6000 -128.500 TD 25 1011 -1 10 353
2002204N12263 2002 42 EP MM ELIDA 2002-07-30 15:00:00 TS 29.1075 -128.572 main 965 931 P_____________ EP062002 29.1075 -128.572 TD 22 1012 -1 10 355
2002204N12263 2002 42 EP MM ELIDA 2002-07-30 18:00:00 DS 29.6000 -128.600 20 1013 hurdat_epa main 931 898 O_____________ hurdat_epa EP062002 29.6000 -128.600 LO 20 1013 -3 10 359
2002204N12263 2002 42 EP MM ELIDA 2002-07-30 21:00:00 DS 30.1075 -128.573 main 898 860 P_____________ EP062002 30.1075 -128.573 LO 20 1013 -3 10 5
2002204N12263 2002 42 EP MM ELIDA 2002-07-31 00:00:00 DS 30.6000 -128.500 20 1014 hurdat_epa main 860 829 O_____________ hurdat_epa EP062002 30.6000 -128.500 LO 20 1014 -3 10 8
2002204N12263 2002 42 EP MM ELIDA 2002-07-31 03:00:00 DS 31.0575 -128.415 main 823 794 P_____________ EP062002 31.0575 -128.415 LO 20 1014 -3 9 11
2002204N12263 2002 42 EP MM ELIDA 2002-07-31 06:00:00 DS 31.5000 -128.300 20 1014 hurdat_epa main 794 758 O_____________ hurdat_epa EP062002 31.5000 -128.300 LO 20 1014 -3 9 13
2002204N12263 2002 42 EP MM ELIDA 2002-07-31 09:00:00 DS 31.9725 -128.165 main 750 707 P_____________ EP062002 31.9725 -128.165 LO 17 1014 -3 9 16
2002204N12263 2002 42 EP MM ELIDA 2002-07-31 12:00:00 DS 32.4000 -128.000 15 1015 hurdat_epa main 707 672 O_____________ hurdat_epa EP062002 32.4000 -128.000 LO 15 1015 -3 8 22
2002204N12263 2002 42 EP MM ELIDA 2002-07-31 15:00:00 DS 32.7301 -127.808 main 672 636 P_____________ EP062002 32.7301 -127.808 LO 15 1015 -3 7 29
2002204N12263 2002 42 EP MM ELIDA 2002-07-31 18:00:00 DS 33.0000 -127.600 15 1016 hurdat_epa main 636 O_____________ hurdat_epa EP062002 33.0000 -127.600 LO 15 1016 -3 6 33

About IBTrACS Database

This database is a web-friendly format of International Best Track Archive for Climate Stewardship (IBTrACS), a global best track data archive curated by NOAA dating back to 1842.

Updated: 2021-10-21